createdAt,value
2023-02-18T00:02:32.988Z,99318.47
2023-02-18T00:07:36.149Z,99321.34
2023-02-18T00:12:38.676Z,99376.84
2023-02-18T00:17:48.356Z,99373.28
2023-02-18T00:22:50.567Z,99357.66
2023-02-18T00:27:52.728Z,99348.28
2023-02-18T00:32:54.982Z,99343.97
2023-02-18T00:37:57.135Z,99344.06
2023-02-18T00:42:59.251Z,99317.03
2023-02-18T00:48:01.489Z,99325.88
2023-02-18T00:53:03.904Z,99308.34
2023-02-18T00:58:06.099Z,99295.31
2023-02-18T01:03:09.215Z,99229.19
2023-02-18T01:08:12.387Z,99239.22
2023-02-18T01:13:16.224Z,99230.94
2023-02-18T01:18:20.468Z,99228.19
2023-02-18T01:23:23.338Z,99256.63
2023-02-18T01:28:26.244Z,99226.22
2023-02-18T01:33:28.449Z,99239.31
2023-02-18T01:38:30.655Z,99219.59
2023-02-18T01:43:33.345Z,99213.53
2023-02-18T01:49:08.274Z,99214.44
2023-02-18T01:54:31.198Z,99197.53
2023-02-18T01:59:41.552Z,99181.91
2023-02-18T02:04:43.898Z,99188.84
2023-02-18T02:09:47.184Z,99163.63
2023-02-18T02:15:08.058Z,99170.22
2023-02-18T02:20:34.932Z,99165.72
2023-02-18T02:26:27.040Z,99160.09
2023-02-18T02:31:48.685Z,99149.81
2023-02-18T02:36:55.686Z,99125.94
2023-02-18T02:42:23.539Z,99137.16
2023-02-18T02:47:33.270Z,99134.19
2023-02-18T02:52:41.753Z,99131.44
2023-02-18T02:57:47.557Z,99121.38
2023-02-18T03:03:00.673Z,99110.63
2023-02-18T03:08:32.243Z,99079.22
2023-02-18T03:13:46.819Z,99108.72
2023-02-18T03:19:12.903Z,99055.88
2023-02-18T03:24:21.273Z,99076.75
2023-02-18T03:29:23.924Z,99008.53
2023-02-18T03:34:30.303Z,99055.38
2023-02-18T03:39:35.833Z,98984.16
2023-02-18T03:44:39.313Z,99038.41
2023-02-18T03:49:41.600Z,99005.16
2023-02-18T03:54:43.803Z,98967.97
2023-02-18T03:59:46.100Z,98965.66
2023-02-18T04:04:48.221Z,98987.59
2023-02-18T04:09:50.510Z,99002.47
2023-02-18T04:14:52.684Z,98950.09
2023-02-18T04:19:54.841Z,98977.56
2023-02-18T04:24:57.093Z,98974.44
2023-02-18T04:29:59.262Z,98966.19
2023-02-18T04:35:01.432Z,98973.34
2023-02-18T04:40:03.859Z,98996.84
2023-02-18T04:45:06.563Z,98970.97
2023-02-18T04:50:09.439Z,98960.53
2023-02-18T04:55:11.627Z,98946.22
2023-02-18T05:00:17.388Z,98964.41
2023-02-18T05:05:19.544Z,98906.00
2023-02-18T05:10:21.725Z,98912.16
2023-02-18T05:15:23.837Z,98921.47
2023-02-18T05:20:26.007Z,98930.84
2023-02-18T05:25:28.240Z,98866.84
2023-02-18T05:30:30.444Z,98900.38
2023-02-18T05:35:32.682Z,98881.53
2023-02-18T05:40:34.871Z,98866.16
2023-02-18T05:45:37.530Z,98856.19
2023-02-18T05:50:39.917Z,98861.47
2023-02-18T05:55:42.137Z,98866.97
2023-02-18T06:00:44.351Z,98862.25
2023-02-18T06:05:50.450Z,98801.16
2023-02-18T06:10:52.734Z,98846.53
2023-02-18T06:15:55.368Z,98840.91
2023-02-18T06:20:57.554Z,98808.69
2023-02-18T06:25:59.819Z,98773.41
2023-02-18T06:31:02.186Z,98791.44
2023-02-18T06:36:11.855Z,98787.34
2023-02-18T06:41:15.389Z,98807.75
2023-02-18T06:46:17.802Z,98785.19
2023-02-18T06:51:20.036Z,98770.75
2023-02-18T06:56:22.245Z,98769.69
2023-02-18T07:01:24.412Z,98745.59
2023-02-18T07:06:26.624Z,98730.66
2023-02-18T07:11:28.850Z,98750.34
2023-02-18T07:16:31.144Z,98719.22
2023-02-18T07:21:33.443Z,98707.06
2023-02-18T07:26:35.924Z,98700.63
2023-02-18T07:31:39.026Z,98691.00
2023-02-18T07:36:41.371Z,98690.84
2023-02-18T07:41:43.518Z,98700.28
2023-02-18T07:46:50.598Z,98692.81
2023-02-18T07:51:52.801Z,98663.69
2023-02-18T07:56:57.778Z,98679.94
2023-02-18T08:02:00.008Z,98647.97
2023-02-18T08:07:02.269Z,98650.38
2023-02-18T08:12:04.765Z,98635.50
2023-02-18T08:17:06.941Z,98610.22
2023-02-18T08:22:10.682Z,98630.56
2023-02-18T08:27:14.871Z,98596.19
2023-02-18T08:32:17.197Z,98631.66
2023-02-18T08:37:19.631Z,98569.13
2023-02-18T08:42:22.358Z,98582.94
2023-02-18T08:48:18.201Z,98608.72
2023-02-18T08:52:47.681Z,98586.00
2023-02-18T08:57:50.598Z,98580.56
2023-02-18T09:02:52.824Z,98540.28
2023-02-18T09:07:55.107Z,98526.69
2023-02-18T09:12:57.453Z,98524.25
2023-02-18T09:18:00.119Z,98466.78
2023-02-18T09:23:03.877Z,98549.81
2023-02-18T09:28:06.050Z,98533.50
2023-02-18T09:33:08.226Z,98469.97
2023-02-18T09:38:12.088Z,98498.41
2023-02-18T09:43:34.277Z,98488.59
2023-02-18T09:48:37.949Z,98484.72
2023-02-18T09:53:42.692Z,98451.09
2023-02-18T09:58:47.417Z,98457.84
2023-02-18T10:03:50.017Z,98410.84
2023-02-18T10:08:53.321Z,98395.28
2023-02-18T10:13:56.053Z,98422.34
2023-02-18T10:19:00.683Z,98410.19
2023-02-18T10:24:35.261Z,98424.84
2023-02-18T10:29:37.557Z,98367.06
2023-02-18T10:34:53.792Z,98403.38
2023-02-18T10:40:18.519Z,98382.41
2023-02-18T10:45:34.529Z,98336.72
2023-02-18T10:50:44.662Z,98367.66
2023-02-18T10:55:51.337Z,98379.75
2023-02-18T11:00:54.135Z,98340.66
2023-02-18T11:05:57.225Z,98373.34
2023-02-18T11:11:00.103Z,98298.22
2023-02-18T11:16:06.102Z,98340.38
2023-02-18T11:21:26.948Z,98299.50
2023-02-18T11:26:32.158Z,98299.22
2023-02-18T11:31:44.679Z,98303.63
2023-02-18T11:36:47.965Z,98287.63
2023-02-18T11:42:05.462Z,98310.56
2023-02-18T11:47:20.370Z,98294.50
2023-02-18T11:52:27.971Z,98277.72
2023-02-18T11:57:31.272Z,98245.00
2023-02-18T12:02:38.465Z,98204.56
2023-02-18T12:07:47.309Z,98191.28
2023-02-18T12:13:03.478Z,98259.38
2023-02-18T12:18:27.826Z,98245.81
2023-02-18T12:23:39.031Z,98245.50
2023-02-18T12:29:26.260Z,98245.59
2023-02-18T12:34:45.432Z,98243.66
2023-02-18T12:40:04.458Z,98237.63
2023-02-18T12:45:28.359Z,98229.94
2023-02-18T12:50:42.626Z,98225.53
2023-02-18T12:56:09.571Z,98214.59
2023-02-18T13:01:31.115Z,98207.84
2023-02-18T13:06:36.048Z,98202.47
2023-02-18T13:12:05.828Z,98204.78
2023-02-18T13:17:09.837Z,98204.38
2023-02-18T13:22:13.770Z,98195.63
2023-02-18T13:27:34.736Z,98202.28
2023-02-18T13:32:41.106Z,98185.78
2023-02-18T13:38:04.507Z,98168.50
2023-02-18T13:43:29.561Z,98176.34
2023-02-18T13:48:36.045Z,98148.50
2023-02-18T13:53:43.065Z,98158.81
2023-02-18T13:59:17.726Z,98155.63
2023-02-18T14:04:44.656Z,98148.69
2023-02-18T14:09:47.164Z,98138.81
2023-02-18T14:14:49.462Z,98137.25
2023-02-18T14:20:03.631Z,98136.31
2023-02-18T14:25:09.193Z,98137.75
2023-02-18T14:30:28.665Z,98112.81
2023-02-18T14:35:55.347Z,98123.53
2023-02-18T14:41:19.735Z,98130.50
2023-02-18T14:46:30.970Z,98119.44
2023-02-18T14:51:34.582Z,98104.34
2023-02-18T14:56:51.544Z,98084.44
2023-02-18T15:01:55.848Z,98064.50
2023-02-18T15:07:00.513Z,98089.25
2023-02-18T15:12:07.650Z,98059.84
2023-02-18T15:17:22.570Z,98029.63
2023-02-18T15:22:26.956Z,98039.28
2023-02-18T15:27:35.336Z,98054.28
2023-02-18T15:32:37.460Z,98076.47
2023-02-18T15:37:44.500Z,98056.41
2023-02-18T15:42:49.430Z,98015.41
2023-02-18T15:47:54.659Z,98044.38
2023-02-18T15:52:59.969Z,98012.69
2023-02-18T15:58:12.188Z,98045.03
2023-02-18T16:03:28.696Z,98019.84
2023-02-18T16:08:37.981Z,98011.81
2023-02-18T16:13:46.827Z,98039.81
2023-02-18T16:18:49.240Z,97982.47
2023-02-18T16:23:58.885Z,98032.97
2023-02-18T16:29:07.388Z,98014.91
2023-02-18T16:34:09.992Z,98008.25
2023-02-18T16:39:15.432Z,98006.59
2023-02-18T16:44:18.338Z,98006.59
2023-02-18T16:49:21.359Z,97966.66
2023-02-18T16:54:34.214Z,97965.84
2023-02-18T16:59:37.395Z,97997.13
2023-02-18T17:04:40.205Z,97992.03
2023-02-18T17:09:44.465Z,97974.94
2023-02-18T17:14:48.047Z,97972.34
2023-02-18T17:19:51.876Z,97957.56
2023-02-18T17:24:54.535Z,97969.09
2023-02-18T17:30:02.535Z,97963.03
2023-02-18T17:35:06.346Z,97956.13
2023-02-18T17:40:17.383Z,97963.19
2023-02-18T17:45:36.573Z,97954.75
2023-02-18T17:50:42.800Z,97946.88
2023-02-18T18:12:20.140Z,97892.78
2023-02-18T18:17:22.345Z,97940.94
2023-02-18T18:22:24.539Z,97910.94
2023-02-18T18:27:26.676Z,97923.53
2023-02-18T18:32:28.854Z,97918.22
2023-02-18T18:37:31.019Z,97882.47
2023-02-18T18:42:36.058Z,97899.50
2023-02-18T18:47:38.378Z,97920.50
2023-02-18T18:52:43.643Z,97909.50
2023-02-18T18:57:47.250Z,97900.03
2023-02-18T19:02:49.743Z,97896.59
2023-02-18T19:07:52.463Z,97891.75
2023-02-18T19:13:09.266Z,97885.91
2023-02-18T19:18:14.498Z,97887.56
2023-02-18T19:23:16.668Z,97887.56
2023-02-18T19:28:20.779Z,97853.72
2023-02-18T19:33:23.120Z,97872.06
2023-02-18T19:38:25.293Z,97851.97
2023-02-18T19:43:27.590Z,97870.91
2023-02-18T19:48:29.866Z,97836.28
2023-02-18T19:53:32.135Z,97877.97
2023-02-18T19:58:34.922Z,97858.09
2023-02-18T20:03:37.491Z,97850.25
2023-02-18T20:08:39.662Z,97831.06
2023-02-18T20:13:42.367Z,97834.47
2023-02-18T20:18:44.607Z,97842.72
2023-02-18T20:23:46.885Z,97815.72
2023-02-18T20:28:50.955Z,97826.94
2023-02-18T20:33:56.664Z,97831.44
2023-02-18T20:39:07.593Z,97777.03
2023-02-18T20:44:17.756Z,97785.56
2023-02-18T20:49:21.722Z,97815.84
2023-02-18T20:54:24.039Z,97817.63
2023-02-18T20:59:26.747Z,97816.88
2023-02-18T21:04:28.984Z,97790.09
2023-02-18T21:09:31.320Z,97809.28
2023-02-18T21:14:33.566Z,97800.78
2023-02-18T21:19:35.754Z,97794.75
2023-02-18T21:24:37.900Z,97744.75
2023-02-18T21:29:40.137Z,97795.81
2023-02-18T21:34:42.276Z,97784.72
2023-02-18T21:39:44.472Z,97789.75
2023-02-18T21:44:49.770Z,97761.03
2023-02-18T21:49:51.849Z,97701.34
2023-02-18T21:54:54.104Z,97737.03
2023-02-18T21:59:56.277Z,97742.28
2023-02-18T22:04:58.775Z,97767.56
2023-02-18T22:10:01.164Z,97757.97
2023-02-18T22:15:04.652Z,97765.91
2023-02-18T22:20:16.030Z,97760.69
2023-02-18T22:25:18.184Z,97756.19
2023-02-18T22:30:20.670Z,97755.53
2023-02-18T22:35:22.826Z,97738.13
2023-02-18T22:40:25.074Z,97735.69
2023-02-18T22:46:01.480Z,97726.97
2023-02-18T22:51:31.377Z,97705.34
2023-02-18T22:56:33.656Z,97749.44
2023-02-18T23:01:40.345Z,97754.63
2023-02-18T23:06:44.092Z,97757.00
2023-02-18T23:11:49.339Z,97743.81
2023-02-18T23:17:13.640Z,97757.81
2023-02-18T23:22:25.200Z,97734.38
2023-02-18T23:27:27.902Z,97755.00
2023-02-18T23:32:30.930Z,97761.59
2023-02-18T23:37:51.598Z,97736.31
2023-02-18T23:42:54.334Z,97760.47
2023-02-18T23:53:37.181Z,97757.13
2023-02-18T23:58:40.121Z,97676.34
